Time;durP1;ratioP1;P1;durP2;ratioP2;P2;SDS_P1;SDS_P2;PMS_P1;PMS_P2;Temp;Humidity;BMP_temperature;BMP_pressure;BME280_temperature;BME280_humidity;BME280_pressure;Samples;Min_cycle;Max_cycle;Signal;HPM_P1;HPM_P2
2023/05/12 00:00:00;;;;;;;11.85;10.00;;;17.70;71.10;;;;;;5068133;28;20098;-50
2023/05/12 00:02:26;;;;;;;13.75;10.70;;;17.70;71.20;;;;;;5060978;28;20048;-46
2023/05/12 00:04:58;;;;;;;10.27;9.07;;;17.70;71.30;;;;;;5067698;28;20509;-50
2023/05/12 00:07:25;;;;;;;11.10;7.47;;;17.60;71.10;;;;;;5072482;28;20036;-48
2023/05/12 00:09:52;;;;;;;10.15;8.30;;;17.60;71.00;;;;;;5068536;28;20044;-47
2023/05/12 00:12:18;;;;;;;8.45;7.55;;;17.60;71.30;;;;;;5069032;28;20098;-50
2023/05/12 00:14:47;;;;;;;9.30;7.10;;;17.50;71.30;;;;;;5066161;28;20536;-47
2023/05/12 00:17:16;;;;;;;7.72;5.63;;;17.50;71.40;;;;;;5068383;28;20132;-47
2023/05/12 00:19:45;;;;;;;6.47;5.75;;;17.40;71.40;;;;;;5068472;28;20035;-48
2023/05/12 00:22:14;;;;;;;7.32;6.03;;;17.40;71.50;;;;;;5068473;28;20036;-49
2023/05/12 00:24:43;;;;;;;6.22;5.53;;;17.30;71.60;;;;;;5068754;28;20090;-46
2023/05/12 00:27:13;;;;;;;6.10;5.38;;;17.30;71.90;;;;;;5072105;28;20036;-50
2023/05/12 00:29:40;;;;;;;6.20;5.63;;;17.20;71.90;;;;;;5072234;28;20564;-47
2023/05/12 00:32:07;;;;;;;7.68;5.47;;;17.10;71.90;;;;;;5071208;28;20048;-47
2023/05/12 00:34:33;;;;;;;5.47;4.97;;;17.10;72.20;;;;;;5070613;28;20036;-47
2023/05/12 00:37:00;;;;;;;5.93;5.25;;;17.00;72.50;;;;;;5054149;28;20048;-48
2023/05/12 00:39:37;;;;;;;6.93;6.22;;;17.00;72.80;;;;;;5054182;28;20040;-49
2023/05/12 00:42:07;;;;;;;6.50;5.80;;;17.00;73.00;;;;;;5070972;28;20045;-49
2023/05/12 00:44:35;;;;;;;7.55;6.85;;;17.00;72.90;;;;;;5050326;28;20045;-49
2023/05/12 00:47:03;;;;;;;7.97;6.78;;;16.90;72.90;;;;;;5069899;28;20441;-48
2023/05/12 00:49:31;;;;;;;7.85;6.22;;;16.90;73.00;;;;;;5064097;28;20646;-50
2023/05/12 00:52:05;;;;;;;7.40;6.60;;;16.90;73.20;;;;;;5050067;28;20053;-47
2023/05/12 00:54:33;;;;;;;7.88;6.68;;;16.90;74.00;;;;;;5044437;28;20052;-48
2023/05/12 00:57:05;;;;;;;7.18;6.47;;;16.80;73.60;;;;;;5070515;28;20056;-49
2023/05/12 00:59:31;;;;;;;6.95;6.35;;;16.80;73.50;;;;;;5071549;28;20043;-46
2023/05/12 01:01:58;;;;;;;6.90;5.93;;;16.80;73.50;;;;;;5053502;28;20056;-48
2023/05/12 01:04:25;;;;;;;7.00;6.30;;;16.80;73.50;;;;;;5053401;28;20098;-49
2023/05/12 01:07:02;;;;;;;8.35;7.55;;;16.80;73.60;;;;;;5074714;28;20033;-49
2023/05/12 01:09:30;;;;;;;6.65;5.95;;;16.80;73.90;;;;;;5045425;28;20044;-49
2023/05/12 01:12:06;;;;;;;7.05;5.32;;;16.80;73.60;;;;;;5071395;28;20064;-50
2023/05/12 01:14:39;;;;;;;5.65;5.07;;;16.80;73.60;;;;;;5059390;28;20037;-48
2023/05/12 01:17:11;;;;;;;6.53;5.90;;;16.80;73.80;;;;;;5052161;28;20048;-48
2023/05/12 01:19:44;;;;;;;5.80;5.20;;;16.80;73.90;;;;;;5052931;28;20044;-46
2023/05/12 01:22:11;;;;;;;6.22;5.63;;;16.70;73.50;;;;;;5053097;28;20127;-47
2023/05/12 01:24:52;;;;;;;5.75;5.25;;;16.70;73.50;;;;;;5052008;28;20416;-46
2023/05/12 01:27:26;;;;;;;6.25;5.70;;;16.70;74.00;;;;;;5067924;28;20102;-50
2023/05/12 01:29:58;;;;;;;5.80;5.20;;;16.70;73.60;;;;;;5052809;28;20044;-50
2023/05/12 01:32:29;;;;;;;6.07;5.45;;;16.70;74.00;;;;;;5052114;28;20045;-49
2023/05/12 01:34:57;;;;;;;6.28;5.68;;;16.70;73.80;;;;;;5051900;28;20425;-49
2023/05/12 01:37:27;;;;;;;6.18;5.57;;;16.70;73.80;;;;;;5052395;28;20127;-46
2023/05/12 01:39:55;;;;;;;5.93;5.35;;;16.70;73.40;;;;;;5052471;28;20067;-46
2023/05/12 01:42:22;;;;;;;6.53;5.65;;;16.70;73.30;;;;;;5071224;28;20063;-48
2023/05/12 01:44:49;;;;;;;6.43;5.75;;;16.70;73.50;;;;;;5047437;28;20498;-49
2023/05/12 01:47:23;;;;;;;6.72;5.78;;;16.70;73.60;;;;;;5053003;28;20041;-48
2023/05/12 01:50:08;;;;;;;7.20;6.13;;;16.60;73.80;;;;;;5052605;28;20045;-50
2023/05/12 01:52:35;;;;;;;6.20;5.60;;;16.60;74.00;;;;;;5038337;28;20055;-48
2023/05/12 01:55:10;;;;;;;5.90;4.97;;;16.70;73.90;;;;;;5052047;28;20102;-48
2023/05/12 01:57:44;;;;;;;5.68;5.00;;;16.70;73.80;;;;;;5050712;28;20053;-47
2023/05/12 02:00:11;;;;;;;6.25;5.07;;;16.60;73.80;;;;;;5051659;28;20044;-47
2023/05/12 02:02:41;;;;;;;5.13;4.63;;;16.60;73.70;;;;;;5065760;28;20072;-47
2023/05/12 02:05:11;;;;;;;5.85;4.45;;;16.60;73.70;;;;;;5048575;28;20049;-47
2023/05/12 02:07:38;;;;;;;4.47;3.95;;;16.60;74.60;;;;;;5069906;28;20033;-48
2023/05/12 02:10:08;;;;;;;4.93;4.38;;;16.60;74.00;;;;;;5053027;28;20056;-49
2023/05/12 02:12:35;;;;;;;4.47;4.07;;;16.60;73.90;;;;;;5069139;28;20135;-46
2023/05/12 02:15:04;;;;;;;4.13;3.72;;;16.60;73.90;;;;;;5049434;28;20048;-46
2023/05/12 02:17:36;;;;;;;4.35;3.95;;;16.60;74.00;;;;;;5048585;28;20083;-47
2023/05/12 02:20:16;;;;;;;4.50;4.10;;;16.60;74.00;;;;;;5052190;28;20052;-46
2023/05/12 02:22:49;;;;;;;4.60;4.18;;;16.60;74.00;;;;;;5052617;28;20048;-50
2023/05/12 02:25:21;;;;;;;4.43;4.03;;;16.50;74.00;;;;;;5069149;28;20043;-50
2023/05/12 02:27:49;;;;;;;4.50;4.05;;;16.50;74.30;;;;;;5067035;28;20036;-48
2023/05/12 02:30:17;;;;;;;3.15;2.88;;;16.50;74.30;;;;;;5051421;28;20062;-48
2023/05/12 02:32:45;;;;;;;3.42;3.13;;;16.50;74.10;;;;;;5051150;28;20068;-47
2023/05/12 02:35:12;;;;;;;2.20;2.05;;;16.50;74.10;;;;;;5047787;28;20101;-46
2023/05/12 02:37:41;;;;;;;2.67;2.47;;;16.50;74.00;;;;;;5067989;28;20119;-48
2023/05/12 02:40:12;;;;;;;2.65;2.30;;;16.40;73.80;;;;;;5069410;28;20075;-51
2023/05/12 02:42:39;;;;;;;2.20;2.00;;;16.50;74.10;;;;;;5062353;28;20036;-47
2023/05/12 02:45:06;;;;;;;1.77;1.67;;;16.40;74.00;;;;;;5049144;28;20518;-47
2023/05/12 02:47:41;;;;;;;1.50;1.40;;;16.40;73.80;;;;;;5050116;28;20036;-49
2023/05/12 02:50:11;;;;;;;1.60;1.50;;;16.30;73.80;;;;;;5051365;28;20052;-47
2023/05/12 02:52:38;;;;;;;1.92;1.30;;;16.30;73.80;;;;;;5045252;28;20615;-49
2023/05/12 02:55:10;;;;;;;1.88;1.65;;;16.30;74.10;;;;;;5051070;28;20079;-50
2023/05/12 02:57:36;;;;;;;1.50;1.38;;;16.30;74.30;;;;;;5065446;28;20396;-50
2023/05/12 03:00:06;;;;;;;1.73;1.13;;;16.20;74.30;;;;;;5050892;28;20513;-47
2023/05/12 03:02:39;;;;;;;1.02;0.90;;;16.20;74.40;;;;;;5051696;28;20048;-49
2023/05/12 03:05:08;;;;;;;0.88;0.60;;;16.20;74.30;;;;;;5050599;28;20127;-49
2023/05/12 03:07:36;;;;;;;0.70;0.52;;;16.20;74.20;;;;;;5045039;28;20048;-46
2023/05/12 03:10:03;;;;;;;0.65;0.65;;;16.20;74.40;;;;;;5069242;28;20057;-48
2023/05/12 03:12:30;;;;;;;0.73;0.70;;;16.10;74.30;;;;;;5049275;28;20053;-47
2023/05/12 03:14:57;;;;;;;0.70;0.60;;;16.10;74.30;;;;;;5040393;28;20052;-48
2023/05/12 03:17:26;;;;;;;0.70;0.70;;;16.00;74.10;;;;;;5059114;28;20064;-48
2023/05/12 03:19:58;;;;;;;0.90;0.90;;;16.00;74.20;;;;;;5050807;28;20040;-47
2023/05/12 03:22:24;;;;;;;1.23;1.13;;;16.00;74.20;;;;;;5050882;28;20496;-48
2023/05/12 03:24:52;;;;;;;1.10;1.00;;;16.00;74.40;;;;;;5049666;28;20032;-47
2023/05/12 03:27:19;;;;;;;1.35;1.25;;;15.90;74.30;;;;;;5048276;28;20052;-47
2023/05/12 03:29:46;;;;;;;2.17;1.52;;;16.00;74.50;;;;;;5050468;28;20163;-49
2023/05/12 03:32:16;;;;;;;1.63;1.42;;;15.90;74.40;;;;;;5050520;28;20562;-46
2023/05/12 03:34:44;;;;;;;1.50;1.30;;;15.90;74.50;;;;;;5047721;28;20060;-48
2023/05/12 03:37:16;;;;;;;1.55;1.45;;;15.90;74.60;;;;;;5066580;28;20324;-48
2023/05/12 03:39:43;;;;;;;1.77;1.65;;;15.90;74.50;;;;;;5051369;28;20037;-48
2023/05/12 03:42:13;;;;;;;1.50;1.40;;;15.90;74.60;;;;;;5068172;28;20632;-47
2023/05/12 03:44:40;;;;;;;2.33;1.90;;;15.90;74.70;;;;;;5042800;28;20033;-48
2023/05/12 03:47:09;;;;;;;1.70;1.60;;;15.90;74.80;;;;;;5068724;28;20033;-45
2023/05/12 03:49:36;;;;;;;1.85;1.75;;;15.90;74.80;;;;;;5051424;28;20051;-49
2023/05/12 03:52:03;;;;;;;2.92;2.63;;;15.90;74.90;;;;;;5051618;28;20143;-47
2023/05/12 03:54:38;;;;;;;1.75;1.65;;;15.90;74.80;;;;;;5049782;28;20512;-46
2023/05/12 03:57:10;;;;;;;2.20;2.00;;;15.90;74.80;;;;;;5065996;28;20610;-50
2023/05/12 03:59:37;;;;;;;2.42;2.22;;;15.90;74.80;;;;;;5052731;28;20037;-48
2023/05/12 04:02:10;;;;;;;2.45;2.25;;;16.00;75.00;;;;;;5054999;28;20507;-49
2023/05/12 04:04:39;;;;;;;2.20;1.90;;;16.00;75.00;;;;;;5046474;28;20059;-47
2023/05/12 04:07:06;;;;;;;2.30;2.03;;;16.00;74.90;;;;;;5069884;28;20032;-47
2023/05/12 04:09:35;;;;;;;2.58;2.38;;;16.00;74.90;;;;;;5073104;28;20135;-49
2023/05/12 04:12:03;;;;;;;3.17;2.55;;;16.10;75.00;;;;;;5072867;28;20067;-50
2023/05/12 04:14:30;;;;;;;2.42;2.22;;;16.10;74.90;;;;;;5060159;28;20044;-47
2023/05/12 04:17:10;;;;;;;2.88;2.58;;;16.10;74.80;;;;;;5072314;28;20044;-48
2023/05/12 04:19:42;;;;;;;2.50;2.30;;;16.10;75.30;;;;;;5046838;28;20046;-50
2023/05/12 04:22:09;;;;;;;2.83;2.63;;;16.10;74.70;;;;;;5055194;28;20043;-47
2023/05/12 04:24:38;;;;;;;2.95;2.47;;;16.20;74.70;;;;;;5064590;28;20052;-48
2023/05/12 04:27:06;;;;;;;3.28;2.92;;;16.20;74.80;;;;;;5058016;28;20127;-48
2023/05/12 04:29:34;;;;;;;4.05;3.22;;;16.20;74.80;;;;;;5047772;28;20032;-48
2023/05/12 04:32:02;;;;;;;4.18;2.90;;;16.20;74.80;;;;;;5050904;28;20404;-49
2023/05/12 04:34:29;;;;;;;2.88;2.63;;;16.30;74.90;;;;;;5051853;28;20055;-47
2023/05/12 04:36:57;;;;;;;3.40;2.90;;;16.30;75.10;;;;;;5053077;28;20040;-47
2023/05/12 04:39:23;;;;;;;3.90;2.75;;;16.30;75.10;;;;;;5066877;28;20047;-48
2023/05/12 04:41:50;;;;;;;4.05;3.25;;;16.40;75.10;;;;;;5049789;28;20067;-46
2023/05/12 04:44:17;;;;;;;3.78;3.35;;;16.40;75.00;;;;;;5053411;28;20040;-48
2023/05/12 04:46:44;;;;;;;4.15;3.28;;;16.50;75.10;;;;;;5048464;28;20227;-45
2023/05/12 04:49:12;;;;;;;4.60;3.33;;;16.40;75.00;;;;;;5048548;28;20043;-47
2023/05/12 04:51:43;;;;;;;4.07;3.40;;;16.50;75.10;;;;;;5042622;28;20048;-49
2023/05/12 04:54:13;;;;;;;3.78;3.03;;;16.50;75.20;;;;;;5066430;28;20044;-48
2023/05/12 04:56:40;;;;;;;4.68;3.75;;;16.50;75.20;;;;;;5063182;28;20116;-47
2023/05/12 04:59:10;;;;;;;3.78;3.45;;;16.60;75.90;;;;;;5054278;28;20463;-48
2023/05/12 05:01:40;;;;;;;5.40;3.85;;;16.70;75.40;;;;;;5072021;28;20036;-48
2023/05/12 05:04:07;;;;;;;5.35;3.42;;;16.70;75.90;;;;;;5049973;28;20048;-49
2023/05/12 05:06:34;;;;;;;6.10;4.10;;;16.70;75.10;;;;;;5063675;28;20431;-47
2023/05/12 05:09:01;;;;;;;6.25;5.25;;;16.70;75.10;;;;;;5045367;28;20084;-48
2023/05/12 05:11:28;;;;;;;7.28;4.72;;;16.80;75.20;;;;;;5048987;28;20068;-47
2023/05/12 05:13:55;;;;;;;4.60;3.95;;;16.80;75.10;;;;;;5044057;28;20072;-49
2023/05/12 05:16:23;;;;;;;4.00;3.60;;;16.80;75.20;;;;;;5044853;28;20072;-52
2023/05/12 05:18:50;;;;;;;3.88;3.08;;;16.90;75.30;;;;;;5048290;28;20098;-53
2023/05/12 05:21:17;;;;;;;5.22;3.83;;;16.90;75.30;;;;;;5052329;28;20068;-50
2023/05/12 05:23:44;;;;;;;5.57;4.32;;;17.00;75.20;;;;;;5064987;28;20036;-50
2023/05/12 05:26:11;;;;;;;7.57;4.40;;;17.00;75.20;;;;;;5051896;28;20409;-50
2023/05/12 05:28:38;;;;;;;5.78;4.22;;;17.10;75.20;;;;;;5051644;28;20040;-54
2023/05/12 05:31:06;;;;;;;5.35;4.05;;;17.10;75.00;;;;;;5053190;28;20409;-55
2023/05/12 05:33:34;;;;;;;4.78;3.80;;;17.10;74.80;;;;;;5049049;28;20053;-53
2023/05/12 05:36:02;;;;;;;5.32;3.97;;;17.20;74.70;;;;;;5051367;28;20053;-50
2023/05/12 05:38:28;;;;;;;6.97;4.05;;;17.20;74.50;;;;;;5051320;28;20073;-52
2023/05/12 05:40:55;;;;;;;4.53;3.55;;;17.30;74.40;;;;;;5050085;28;20493;-53
2023/05/12 05:43:23;;;;;;;4.95;4.40;;;17.30;74.50;;;;;;5048773;28;20128;-52
2023/05/12 05:45:50;;;;;;;4.72;3.92;;;17.30;74.40;;;;;;5051893;28;20079;-52
2023/05/12 05:48:19;;;;;;;4.75;3.78;;;17.30;74.40;;;;;;5051966;28;20090;-52
2023/05/12 05:50:46;;;;;;;5.10;3.63;;;17.40;74.40;;;;;;5062842;28;20574;-50
2023/05/12 05:53:13;;;;;;;4.35;3.45;;;17.40;74.30;;;;;;5049889;28;20049;-50
2023/05/12 05:55:40;;;;;;;6.05;4.63;;;17.40;74.30;;;;;;5052760;28;20114;-50
2023/05/12 05:58:07;;;;;;;4.35;3.40;;;17.50;74.30;;;;;;5069660;28;20507;-50
2023/05/12 06:00:34;;;;;;;4.78;3.47;;;17.50;74.30;;;;;;5050189;28;20523;-51
2023/05/12 06:03:00;;;;;;;3.90;3.33;;;17.50;74.10;;;;;;5053140;28;20509;-51
2023/05/12 06:05:27;;;;;;;4.22;3.75;;;17.60;74.10;;;;;;5050968;28;20127;-50
2023/05/12 06:07:54;;;;;;;3.88;3.28;;;17.60;74.20;;;;;;5068527;28;20039;-53
2023/05/12 06:10:21;;;;;;;3.42;3.10;;;17.70;74.30;;;;;;5051891;28;20562;-51
2023/05/12 06:12:49;;;;;;;3.75;3.22;;;17.70;74.30;;;;;;5048422;28;20037;-55
2023/05/12 06:15:16;;;;;;;7.72;3.63;;;17.80;74.40;;;;;;5068092;28;20048;-49
2023/05/12 06:17:43;;;;;;;3.78;3.10;;;17.90;74.40;;;;;;5070466;28;20054;-51
2023/05/12 06:20:12;;;;;;;5.30;3.95;;;17.90;74.10;;;;;;5061582;28;20098;-50
2023/05/12 06:22:41;;;;;;;3.60;3.25;;;18.00;74.10;;;;;;5050229;28;20049;-50
2023/05/12 06:25:09;;;;;;;5.20;3.40;;;18.10;73.90;;;;;;5062356;28;20063;-53
2023/05/12 06:27:37;;;;;;;4.43;3.50;;;18.10;73.60;;;;;;5048752;28;20056;-50
2023/05/12 06:30:05;;;;;;;4.00;3.60;;;18.20;73.60;;;;;;5052179;28;20423;-50
2023/05/12 06:32:32;;;;;;;4.68;3.30;;;18.20;73.60;;;;;;5056738;28;20052;-53
2023/05/12 06:34:59;;;;;;;3.88;3.28;;;18.30;73.40;;;;;;5050522;28;20588;-53
2023/05/12 06:37:26;;;;;;;4.57;3.72;;;18.30;73.60;;;;;;5051689;28;20045;-51
2023/05/12 06:39:53;;;;;;;4.30;3.10;;;18.40;73.70;;;;;;5069163;28;20476;-51
2023/05/12 06:42:19;;;;;;;2.95;2.65;;;18.50;73.40;;;;;;5067722;28;20699;-52
2023/05/12 06:44:50;;;;;;;2.45;2.25;;;18.60;72.50;;;;;;5042384;28;20056;-51
2023/05/12 06:47:19;;;;;;;3.67;2.50;;;18.60;72.30;;;;;;5068105;28;20063;-50
2023/05/12 06:49:48;;;;;;;2.70;2.35;;;18.70;72.00;;;;;;5068958;28;20049;-52
2023/05/12 06:52:15;;;;;;;4.65;2.22;;;18.70;71.50;;;;;;5065279;28;20511;-52
2023/05/12 06:54:42;;;;;;;2.53;2.33;;;18.80;72.00;;;;;;5050329;28;20062;-53
2023/05/12 06:57:09;;;;;;;2.30;2.10;;;18.80;70.70;;;;;;5046159;28;20055;-50
2023/05/12 06:59:36;;;;;;;2.35;2.15;;;18.90;70.30;;;;;;5069954;28;20060;-50
2023/05/12 07:02:02;;;;;;;2.00;1.90;;;18.90;70.40;;;;;;5056524;28;20076;-50
2023/05/12 07:04:29;;;;;;;3.05;2.75;;;18.90;70.00;;;;;;5068320;28;20036;-50
2023/05/12 07:06:56;;;;;;;3.50;2.42;;;18.90;70.00;;;;;;5069316;28;20047;-52
2023/05/12 07:09:22;;;;;;;2.65;2.30;;;19.00;69.30;;;;;;5069094;28;20065;-50
2023/05/12 07:11:49;;;;;;;2.30;2.05;;;19.10;69.40;;;;;;5060387;28;20045;-51
2023/05/12 07:14:16;;;;;;;2.65;2.22;;;19.10;69.30;;;;;;5066519;28;20068;-53
2023/05/12 07:16:43;;;;;;;2.42;2.22;;;19.10;69.10;;;;;;5060533;28;20053;-53
2023/05/12 07:19:09;;;;;;;2.70;2.50;;;19.20;68.50;;;;;;5050879;28;20060;-50
2023/05/12 07:21:36;;;;;;;2.40;2.20;;;19.10;68.40;;;;;;5065551;28;20060;-51
2023/05/12 07:24:05;;;;;;;3.67;2.28;;;19.20;68.60;;;;;;5067308;28;20032;-51
2023/05/12 07:26:32;;;;;;;3.20;2.90;;;19.20;68.50;;;;;;5069955;28;20087;-52
2023/05/12 07:28:59;;;;;;;3.63;2.58;;;19.30;68.90;;;;;;5068796;28;20040;-50
2023/05/12 07:31:26;;;;;;;2.92;2.72;;;19.40;68.30;;;;;;5067989;28;20119;-52
2023/05/12 07:33:53;;;;;;;4.45;2.55;;;19.40;68.30;;;;;;5059064;28;20045;-50
2023/05/12 07:36:20;;;;;;;4.00;3.03;;;19.50;67.80;;;;;;5056829;28;20053;-53
2023/05/12 07:38:47;;;;;;;3.05;2.33;;;19.60;67.80;;;;;;5061062;28;20106;-50
2023/05/12 07:41:14;;;;;;;3.35;2.45;;;19.60;67.50;;;;;;5070318;28;20037;-54
2023/05/12 07:43:41;;;;;;;2.72;2.40;;;19.70;67.40;;;;;;5070691;28;20040;-53
2023/05/12 07:46:07;;;;;;;2.55;2.35;;;19.70;67.30;;;;;;5070697;28;20059;-52
2023/05/12 07:48:38;;;;;;;2.35;2.15;;;19.80;66.70;;;;;;5070342;28;20051;-55
2023/05/12 07:51:06;;;;;;;2.47;2.33;;;19.80;66.60;;;;;;5061089;28;20404;-54
2023/05/12 07:53:32;;;;;;;3.55;2.67;;;19.90;66.50;;;;;;5050363;28;20096;-52
2023/05/12 07:55:59;;;;;;;2.85;2.17;;;19.90;66.40;;;;;;5071638;28;20420;-54
2023/05/12 07:58:26;;;;;;;2.70;2.50;;;19.90;66.10;;;;;;5071021;28;20044;-52
2023/05/12 08:00:53;;;;;;;2.50;2.30;;;20.00;66.00;;;;;;5069699;28;20048;-54
2023/05/12 08:03:20;;;;;;;2.88;2.63;;;20.00;66.00;;;;;;5069628;28;20544;-52
2023/05/12 08:05:47;;;;;;;3.47;2.75;;;20.00;65.90;;;;;;5063199;28;20067;-54
2023/05/12 08:08:15;;;;;;;2.85;2.50;;;20.10;65.90;;;;;;5051009;28;20494;-52
2023/05/12 08:10:43;;;;;;;2.38;2.17;;;20.10;65.60;;;;;;5049223;28;20063;-54
2023/05/12 08:13:10;;;;;;;2.63;2.42;;;20.20;65.10;;;;;;5065173;28;20048;-55
2023/05/12 08:15:36;;;;;;;2.58;2.38;;;20.20;65.70;;;;;;5052291;28;20045;-54
2023/05/12 08:18:03;;;;;;;2.25;2.05;;;20.30;64.50;;;;;;5066707;28;20052;-51
2023/05/12 08:20:31;;;;;;;2.40;2.20;;;20.30;64.50;;;;;;5070466;28;20036;-51
2023/05/12 08:22:57;;;;;;;2.70;2.20;;;20.30;64.50;;;;;;5050017;28;20049;-52
2023/05/12 08:25:26;;;;;;;3.13;2.83;;;20.40;64.40;;;;;;5070347;28;20052;-48
2023/05/12 08:27:53;;;;;;;2.33;2.13;;;20.40;63.90;;;;;;5069340;28;20047;-51
2023/05/12 08:30:19;;;;;;;2.78;2.17;;;20.40;63.60;;;;;;5068939;28;20048;-49
2023/05/12 08:32:46;;;;;;;2.80;2.60;;;20.40;63.70;;;;;;5069304;28;20060;-51
2023/05/12 08:35:13;;;;;;;2.53;2.33;;;20.40;63.60;;;;;;5070663;28;20064;-51
2023/05/12 08:37:40;;;;;;;2.65;2.10;;;20.50;63.50;;;;;;5066376;28;20445;-48
2023/05/12 08:40:15;;;;;;;2.25;2.05;;;20.50;62.90;;;;;;5060323;28;20052;-50
2023/05/12 08:42:43;;;;;;;2.30;2.10;;;20.50;62.50;;;;;;5069095;28;20044;-52
2023/05/12 08:45:11;;;;;;;2.33;2.13;;;20.50;62.60;;;;;;5063986;28;20485;-48
2023/05/12 08:47:38;;;;;;;2.70;2.50;;;20.60;62.40;;;;;;5065846;28;20055;-50
2023/05/12 08:50:06;;;;;;;2.40;1.92;;;20.60;62.50;;;;;;5069775;28;20036;-51
2023/05/12 08:52:34;;;;;;;2.78;1.90;;;20.60;62.80;;;;;;5066459;28;20416;-52
2023/05/12 08:55:02;;;;;;;3.50;2.13;;;20.60;62.70;;;;;;5068784;28;20052;-51
2023/05/12 08:57:30;;;;;;;2.22;1.98;;;20.70;62.10;;;;;;5069874;28;20099;-53
2023/05/12 08:59:58;;;;;;;2.38;2.05;;;20.80;61.90;;;;;;5061900;28;20051;-50
2023/05/12 09:02:27;;;;;;;2.30;2.13;;;20.80;61.80;;;;;;5069345;28;20056;-52
2023/05/12 09:05:07;;;;;;;2.38;2.17;;;20.90;61.00;;;;;;5062387;28;20044;-52
2023/05/12 09:07:38;;;;;;;1.92;1.67;;;20.90;61.30;;;;;;5068601;28;20032;-51
2023/05/12 09:10:10;;;;;;;2.30;1.90;;;20.90;61.30;;;;;;5062384;28;20701;-51
2023/05/12 09:12:56;;;;;;;2.20;2.03;;;21.00;60.90;;;;;;5067964;28;20048;-49
2023/05/12 09:15:29;;;;;;;2.00;1.70;;;21.00;60.70;;;;;;5067288;28;20036;-49
2023/05/12 09:17:55;;;;;;;2.38;2.17;;;21.00;60.70;;;;;;5068567;28;20044;-53
2023/05/12 09:20:25;;;;;;;1.88;1.70;;;21.10;61.20;;;;;;5069781;28;20048;-51
2023/05/12 09:22:58;;;;;;;2.03;1.90;;;21.20;60.80;;;;;;5066838;28;20740;-51
2023/05/12 09:25:25;;;;;;;2.00;1.67;;;21.30;61.20;;;;;;5070205;28;20052;-52
2023/05/12 09:27:57;;;;;;;2.13;1.70;;;21.40;61.20;;;;;;5069999;28;20052;-52
2023/05/12 09:30:29;;;;;;;1.65;1.55;;;21.40;59.40;;;;;;5070501;28;20048;-51
2023/05/12 09:33:07;;;;;;;1.65;1.55;;;21.50;59.10;;;;;;5052108;28;20052;-52
2023/05/12 09:35:41;;;;;;;1.52;1.42;;;21.50;58.30;;;;;;5067610;28;20045;-52
2023/05/12 09:38:10;;;;;;;1.75;1.42;;;21.50;58.50;;;;;;5071005;28;20048;-50
2023/05/12 09:40:37;;;;;;;2.33;1.80;;;21.50;58.60;;;;;;5070144;28;20055;-51
2023/05/12 09:43:07;;;;;;;1.60;1.50;;;21.50;58.60;;;;;;5055196;28;20044;-50
2023/05/12 09:45:35;;;;;;;1.50;1.40;;;21.50;58.10;;;;;;5066761;28;20040;-52
2023/05/12 09:48:12;;;;;;;1.30;1.25;;;21.50;58.50;;;;;;5070219;28;20045;-51
2023/05/12 09:50:45;;;;;;;2.08;1.38;;;21.60;58.40;;;;;;5061855;28;20448;-52
2023/05/12 09:53:16;;;;;;;2.85;1.38;;;21.70;58.20;;;;;;5055897;28;20519;-51
2023/05/12 09:55:43;;;;;;;1.58;1.48;;;21.70;58.10;;;;;;5058191;28;20040;-51
2023/05/12 09:58:10;;;;;;;1.88;1.55;;;21.80;58.20;;;;;;5066665;28;20041;-51
2023/05/12 10:00:40;;;;;;;1.27;1.17;;;22.00;59.10;;;;;;5068762;28;20584;-50
2023/05/12 10:03:29;;;;;;;2.30;1.63;;;21.90;57.80;;;;;;5063997;28;20037;-51
2023/05/12 10:05:58;;;;;;;2.10;1.75;;;22.00;57.90;;;;;;5067666;28;20052;-50
2023/05/12 10:08:32;;;;;;;1.73;1.45;;;22.00;57.80;;;;;;5068041;28;20051;-49
2023/05/12 10:11:01;;;;;;;1.77;1.20;;;22.10;57.10;;;;;;5069470;28;20040;-52
2023/05/12 10:13:28;;;;;;;1.80;1.58;;;22.10;56.50;;;;;;5066845;28;20121;-50
2023/05/12 10:15:58;;;;;;;2.05;1.00;;;22.10;57.20;;;;;;5065824;28;20070;-52
2023/05/12 10:18:25;;;;;;;2.20;1.48;;;22.10;55.80;;;;;;5068964;28;20049;-49
2023/05/12 10:20:53;;;;;;;2.20;1.40;;;22.10;56.30;;;;;;5068370;28;20503;-49
2023/05/12 10:23:20;;;;;;;1.92;1.30;;;22.10;55.90;;;;;;5065670;28;20075;-48
2023/05/12 10:25:48;;;;;;;1.55;1.45;;;22.00;56.20;;;;;;5071099;28;20402;-50
2023/05/12 10:28:15;;;;;;;2.33;1.45;;;22.10;55.70;;;;;;5058784;28;20041;-50
2023/05/12 10:30:43;;;;;;;1.70;1.52;;;22.10;56.40;;;;;;5057374;28;20118;-48
2023/05/12 10:33:10;;;;;;;1.73;1.63;;;22.10;56.20;;;;;;5065853;28;20098;-51
2023/05/12 10:35:38;;;;;;;1.63;1.52;;;22.10;56.70;;;;;;5058860;28;20075;-49
2023/05/12 10:38:21;;;;;;;3.58;1.85;;;22.20;56.90;;;;;;5068830;28;20123;-48
2023/05/12 10:40:57;;;;;;;1.83;1.30;;;22.20;56.80;;;;;;5065670;28;20041;-51
2023/05/12 10:43:26;;;;;;;1.77;1.30;;;22.30;57.30;;;;;;5058545;28;20052;-49
2023/05/12 10:46:09;;;;;;;2.13;1.73;;;22.40;56.70;;;;;;5057484;28;20505;-49
2023/05/12 10:48:47;;;;;;;1.70;1.60;;;22.50;55.30;;;;;;5064739;28;20644;-46
2023/05/12 10:51:41;;;;;;;2.05;1.85;;;22.60;55.50;;;;;;5066644;28;20106;-46
2023/05/12 10:54:10;;;;;;;2.30;1.92;;;22.70;55.20;;;;;;5059018;28;20467;-46
2023/05/12 10:56:37;;;;;;;1.77;1.40;;;22.80;55.40;;;;;;5065747;28;20541;-46
2023/05/12 10:59:10;;;;;;;1.85;1.60;;;22.90;54.80;;;;;;5056543;28;20071;-45
2023/05/12 11:01:38;;;;;;;3.17;2.33;;;22.90;54.70;;;;;;5049534;28;20051;-49
2023/05/12 11:04:14;;;;;;;2.38;1.35;;;23.00;54.50;;;;;;5057143;28;20055;-48
2023/05/12 11:06:42;;;;;;;1.88;1.77;;;23.10;54.20;;;;;;5070427;28;20044;-48
2023/05/12 11:09:11;;;;;;;1.60;1.50;;;23.20;54.60;;;;;;5060560;28;20041;-45
2023/05/12 11:11:39;;;;;;;2.60;1.95;;;23.20;54.10;;;;;;5067699;28;20561;-45
2023/05/12 11:14:08;;;;;;;2.35;1.88;;;23.40;54.20;;;;;;5059098;28;20040;-49
2023/05/12 11:16:42;;;;;;;2.92;2.10;;;23.50;54.30;;;;;;5066163;28;20063;-49
2023/05/12 11:19:09;;;;;;;2.08;1.88;;;23.60;52.60;;;;;;5064148;28;20051;-47
2023/05/12 11:21:36;;;;;;;3.00;1.88;;;23.70;52.50;;;;;;5048538;28;20126;-46
2023/05/12 11:24:02;;;;;;;3.05;1.80;;;23.90;52.80;;;;;;5058839;28;20037;-49
2023/05/12 11:26:29;;;;;;;2.72;2.00;;;24.00;52.50;;;;;;5053690;28;20067;-48
2023/05/12 11:28:57;;;;;;;2.28;2.08;;;24.10;52.00;;;;;;5057312;28;20452;-46
2023/05/12 11:31:24;;;;;;;2.85;1.65;;;24.20;50.90;;;;;;5068069;28;20505;-45
2023/05/12 11:34:02;;;;;;;2.13;1.88;;;24.30;50.60;;;;;;5049646;28;20068;-45
2023/05/12 11:36:42;;;;;;;2.08;1.90;;;24.40;49.90;;;;;;5066272;28;20119;-45
2023/05/12 11:39:16;;;;;;;4.53;2.33;;;24.50;50.50;;;;;;5064710;28;20072;-47
2023/05/12 11:41:43;;;;;;;4.65;2.20;;;24.60;50.00;;;;;;5050832;28;20036;-46
2023/05/12 11:44:18;;;;;;;2.67;1.88;;;24.70;50.60;;;;;;5052618;28;20127;-46
2023/05/12 11:47:02;;;;;;;2.03;1.92;;;24.80;49.80;;;;;;5066903;28;20041;-49
2023/05/12 11:49:30;;;;;;;2.03;1.83;;;24.90;49.30;;;;;;5063515;28;20045;-46
2023/05/12 11:51:59;;;;;;;3.47;1.60;;;25.10;49.10;;;;;;5059432;28;20495;-49
2023/05/12 11:54:29;;;;;;;2.63;2.00;;;25.20;47.80;;;;;;5063723;28;20059;-49
2023/05/12 11:56:57;;;;;;;1.80;1.70;;;25.30;47.90;;;;;;5066893;28;20048;-46
2023/05/12 11:59:31;;;;;;;1.50;1.50;;;25.40;47.40;;;;;;5064098;28;20044;-48
2023/05/12 12:02:01;;;;;;;2.70;1.83;;;25.50;46.70;;;;;;5062672;28;20404;-44
2023/05/12 12:04:33;;;;;;;2.05;1.95;;;25.60;46.40;;;;;;5063607;28;20404;-47
2023/05/12 12:07:00;;;;;;;1.83;1.70;;;25.60;46.40;;;;;;5062707;28;20037;-48
2023/05/12 12:09:41;;;;;;;2.80;1.70;;;25.70;46.40;;;;;;5063956;28;20048;-45
2023/05/12 12:12:09;;;;;;;3.88;1.77;;;25.70;46.20;;;;;;5062922;28;20618;-46
2023/05/12 12:14:37;;;;;;;3.28;2.15;;;25.80;47.10;;;;;;5066648;28;20119;-47
2023/05/12 12:17:04;;;;;;;2.55;2.35;;;25.90;47.50;;;;;;5066229;28;20504;-48
2023/05/12 12:19:31;;;;;;;3.00;2.35;;;26.00;47.90;;;;;;5065241;28;20090;-47
2023/05/12 12:21:57;;;;;;;2.60;2.40;;;26.10;48.10;;;;;;5067237;28;20041;-49
2023/05/12 12:24:24;;;;;;;2.70;2.50;;;26.20;47.50;;;;;;5070263;28;20095;-45
2023/05/12 12:26:51;;;;;;;2.67;2.38;;;26.20;47.70;;;;;;5061594;28;20063;-45
2023/05/12 12:29:18;;;;;;;3.80;3.22;;;26.10;47.60;;;;;;5052117;28;20040;-46
2023/05/12 12:31:44;;;;;;;3.17;2.28;;;26.00;47.20;;;;;;5057440;28;20040;-44
2023/05/12 12:34:11;;;;;;;2.65;2.45;;;25.80;47.50;;;;;;5066173;28;20041;-50
2023/05/12 12:36:37;;;;;;;4.65;2.53;;;25.70;47.30;;;;;;5052190;28;20041;-46
2023/05/12 12:39:04;;;;;;;2.70;2.50;;;25.40;47.00;;;;;;5058368;28;20036;-49
2023/05/12 12:41:31;;;;;;;3.03;2.33;;;25.40;47.10;;;;;;5070724;28;20041;-46
2023/05/12 12:43:58;;;;;;;2.63;2.42;;;25.20;47.20;;;;;;5067577;28;20053;-47
2023/05/12 12:46:25;;;;;;;2.50;2.30;;;25.10;47.30;;;;;;5067696;28;20063;-45
2023/05/12 12:48:51;;;;;;;2.80;2.55;;;25.10;47.60;;;;;;5070922;28;20076;-46
2023/05/12 12:51:18;;;;;;;3.80;2.63;;;25.00;47.10;;;;;;5070252;28;20045;-45
2023/05/12 12:53:45;;;;;;;3.38;2.92;;;24.90;47.30;;;;;;5070007;28;20094;-48